Main page
METAR-TAF:

METAR-TAF

Airports :

Djibouti–Ambouli International Airport

Djibouti, Djibouti

latitude: 11-33N, longitude: 043-10E, elevation: 49 m

Current weather observation

The report was made 53 minutes ago, at 08:00 UTC
Wind 12 kt from the East
Temperature 31°C
Humidity 84%
Pressure 1014 hPa
Visibility 10 km or more
Few clouds at a height of 2000 ft

METAR: HDAM 210800Z 09012KT 9999 FEW020 31/28 Q1014

Time: 11:53 (08:53 UTC)

Forecast

The report was made 9 hours and 53 minutes ago, at 23:00 UTC
Forecast valid from 21 at 00 UTC to 21 at 24 UTC
Wind 3 kt from variable directions
Few clouds at a height of 2300 ft
Scattered clouds at a height of 2000 ft
Becoming
from 21 at 06 UTC to 21 at 12 UTC
Wind 10 kt from the East
Scattered clouds at a height of 2000 ft
Scattered clouds at a height of 3000 ft

TAF: HDAM 202300Z 2100/2124 VRB03KT 9/9 FEW023 SCT020 BECMG 2106/2112 10010KT SCT020 SCT030

Weather observations and forecasts of more than 4000 airports (METAR and TAF reports).

The available stations are represented by yellow and red dots on the map.

Hover mouse over dot to see the name of the station.

Then click to see weather observations and forecasts.

To change the map : click on the green buttons with a black cross to zoom in, on the green button with a dash to zoom out, or on the green arrows for adjacent maps.


METAR-TAF: